To NAV CANADA Home Page Login to a new session Search on AWWS site Disclaimer Vers la page française équivalente Tips FAQ What's new on the site To the Forecasts and Observations / NOTAM section To "File a Flight Plan" website Publications and other links Update of the User's profile FIC Telephone Numbers My Weather Data Folder Route Weather Data Regional Weather Data Local Weather Data To the Forecasts and Observations / NOTAM section
Request Generated 11/13/2018 at 18:04:11 UTC . Weather information available at that time is displayed.

METAR/TAF

CLYDE RIVER/NU    (show WxCam)

METAR CYCY 131700Z 28005KT 25SM IC FEW014 FEW210 M25/M28 A3011 RMK SF1CS2 SF TR SLP203=
METAR CYCY 131600Z 29006KT 25SM IC FEW014 FEW210 M24/M27 A3011 RMK SF1CS2 SF TR SLP203=
METAR CYCY 131500Z 26005KT 25SM IC FEW007 FEW210 M22/M25 A3011 RMK SF1CS2 SF TR -20.8/-26.4/TR/13 TRACE LOOSE SLP203=

TAF AMD CYCY 131409Z 1314/1401 30005KT P6SM FEW003 TEMPO 1314/1319
BKN003
FM131900 31005KT P6SM FEW140 SCT240 PROB30 1319/1401 BKN004
RMK FCST BASED ON AUTO OBS. NXT FCST BY 131900Z=
Your time UTC time
Weather data provided by Environment Canada and NAV CANADA